Time;durP1;ratioP1;P1;durP2;ratioP2;P2;SDS_P1;SDS_P2;PMS_P1;PMS_P2;Temp;Humidity;BMP_temperature;BMP_pressure;BME280_temperature;BME280_humidity;BME280_pressure;Samples;Min_cycle;Max_cycle;Signal;HPM_P1;HPM_P2
2022/05/24 00:01:17;;;;;;;8.70;2.58;;;;;;;16.96;48.15;99262.56;4987844;28;96694;-72
2022/05/24 00:03:42;;;;;;;5.38;2.50;;;;;;;17.03;47.95;99276.16;4989240;28;96874;-72
2022/05/24 00:06:12;;;;;;;7.65;2.53;;;;;;;16.88;48.27;99268.44;4979830;28;97462;-73
2022/05/24 00:08:37;;;;;;;6.85;2.92;;;;;;;16.91;48.41;99268.19;4970384;28;97415;-72
2022/05/24 00:11:03;;;;;;;7.20;2.65;;;;;;;16.81;48.75;99264.56;4990042;28;97237;-72
2022/05/24 00:13:28;;;;;;;12.70;4.07;;;;;;;16.91;48.56;99267.34;4987673;28;96881;-72
2022/05/24 00:15:54;;;;;;;5.60;2.40;;;;;;;16.89;48.65;99254.22;4987392;28;98010;-73
2022/05/24 00:18:24;;;;;;;6.97;2.50;;;;;;;16.68;48.80;99224.03;4988770;28;97865;-71
2022/05/24 00:20:52;;;;;;;6.47;2.70;;;;;;;16.78;48.61;99238.28;4986996;28;96748;-71
2022/05/24 00:23:20;;;;;;;5.25;2.78;;;;;;;16.64;48.99;99239.34;4988130;28;97184;-72
2022/05/24 00:25:47;;;;;;;7.18;2.70;;;;;;;16.50;49.19;99235.06;4970355;28;98163;-73
2022/05/24 00:28:14;;;;;;;4.07;2.83;;;;;;;16.63;49.36;99256.16;4987081;28;97399;-74
2022/05/24 00:30:40;;;;;;;9.05;2.72;;;;;;;16.52;49.15;99233.16;4987081;28;98171;-74
2022/05/24 00:33:06;;;;;;;4.28;2.55;;;;;;;16.39;49.56;99216.50;4987267;28;97177;-74
2022/05/24 00:35:32;;;;;;;6.13;2.20;;;;;;;16.48;49.55;99230.84;4970242;28;98940;-72
2022/05/24 00:37:57;;;;;;;4.85;2.40;;;;;;;16.47;49.63;99235.31;4986537;28;97214;-73
2022/05/24 00:40:40;;;;;;;6.78;2.70;;;;;;;16.53;49.68;99220.75;4988375;28;96688;-74
2022/05/24 00:43:30;;;;;;;5.20;2.97;;;;;;;16.46;49.96;99214.22;4970663;28;97469;-74
2022/05/24 00:46:03;;;;;;;5.43;2.70;;;;;;;16.50;49.77;99208.59;4987936;28;98084;-74
2022/05/24 00:48:38;;;;;;;5.18;2.60;;;;;;;16.64;49.60;99199.59;4987619;28;98498;-74
2022/05/24 00:51:06;;;;;;;4.18;2.30;;;;;;;16.41;49.72;99176.66;4978971;28;96897;-73
2022/05/24 00:53:37;;;;;;;5.82;3.00;;;;;;;16.43;50.05;99199.41;4973754;28;97158;-74
2022/05/24 00:56:03;;;;;;;;;;;;;;;16.42;50.12;99197.72;4971916;28;101134;-74
2022/05/24 00:58:39;;;;;;;5.65;2.92;;;;;;;16.36;50.31;99195.53;4985557;28;97287;-73
2022/05/24 01:01:36;;;;;;;4.40;2.20;;;;;;;16.30;50.47;99188.06;4970464;28;97434;-74
2022/05/24 01:04:02;;;;;;;4.50;2.72;;;;;;;16.41;50.52;99182.81;4984848;28;97370;-73
2022/05/24 01:06:28;;;;;;;5.88;3.22;;;;;;;16.45;50.53;99168.34;4971272;28;97445;-74
2022/05/24 01:08:57;;;;;;;4.78;2.53;;;;;;;16.23;50.42;99155.06;4969442;28;101129;-74
2022/05/24 01:11:23;;;;;;;7.57;3.10;;;;;;;16.25;50.86;99156.63;4984551;28;97165;-74
2022/05/24 01:13:50;;;;;;;5.97;3.00;;;;;;;16.12;51.09;99149.75;4971609;28;96765;-74
2022/05/24 01:16:16;;;;;;;7.70;3.15;;;;;;;16.04;51.27;99152.97;4984390;28;97963;-74
2022/05/24 01:18:43;;;;;;;5.40;3.17;;;;;;;16.05;51.63;99152.84;4990310;28;97862;-74
2022/05/24 01:21:11;;;;;;;4.07;2.50;;;;;;;16.16;51.16;99144.09;4964168;28;97625;-74
2022/05/24 01:24:15;;;;;;;6.53;3.05;;;;;;;16.35;50.80;99137.38;4969970;28;97948;-74
2022/05/24 01:26:46;;;;;;;7.97;2.88;;;;;;;16.13;50.91;99115.22;4965531;28;100612;-74
2022/05/24 01:29:14;;;;;;;7.97;2.88;;;;;;;16.20;51.01;99121.75;4983655;28;97779;-74
2022/05/24 01:37:09;;;;;;;7.00;3.25;;;;;;;16.13;51.20;99083.44;4990236;28;97362;-74
2022/05/24 01:39:35;;;;;;;5.03;2.90;;;;;;;16.19;51.34;99085.63;4985881;28;97245;-72
2022/05/24 01:42:01;;;;;;;4.47;2.75;;;;;;;16.16;51.29;99091.16;4948219;28;97139;-74
2022/05/24 01:44:36;;;;;;;5.60;2.90;;;;;;;16.07;51.64;99087.41;4983194;28;97106;-74
2022/05/24 01:47:02;;;;;;;3.58;2.70;;;;;;;15.98;51.89;99103.97;4968645;28;101440;-74
2022/05/24 01:49:31;;;;;;;5.82;2.95;;;;;;;16.16;51.38;99138.78;4988702;28;97363;-74
2022/05/24 01:52:08;;;;;;;7.10;3.08;;;;;;;16.27;51.17;99151.22;4958563;28;96723;-72
2022/05/24 01:54:38;;;;;;;9.85;3.20;;;;;;;16.21;51.08;99135.81;4953610;28;97178;-73
2022/05/24 01:57:26;;;;;;;4.27;3.20;;;;;;;16.14;51.82;99145.16;4985354;28;100898;-74
2022/05/24 01:59:53;;;;;;;8.13;3.03;;;;;;;16.13;51.57;99141.69;4966007;28;101224;-73
2022/05/24 02:02:18;;;;;;;4.38;2.80;;;;;;;16.16;51.39;99154.69;4980963;28;97764;-74
2022/05/24 02:04:44;;;;;;;6.55;3.45;;;;;;;16.04;51.60;99127.34;4969864;28;96974;-74
2022/05/24 02:07:14;;;;;;;6.28;3.00;;;;;;;16.26;51.25;99121.25;4971999;28;101558;-73
2022/05/24 02:09:44;;;;;;;6.97;3.03;;;;;;;16.21;51.85;99130.53;4969190;28;103537;-74
2022/05/24 02:12:35;;;;;;;4.32;3.20;;;;;;;16.22;51.75;99137.50;4971591;28;97371;-74
2022/05/24 02:15:01;;;;;;;;;;;;;;;16.11;52.01;99140.09;4990751;28;97401;-71
2022/05/24 02:17:41;;;;;;;5.57;3.03;;;;;;;15.93;52.13;99121.16;4988426;28;99332;-73
2022/05/24 02:20:09;;;;;;;6.32;3.25;;;;;;;16.21;52.00;99136.66;4977476;28;100850;-74
2022/05/24 02:22:36;;;;;;;5.38;3.13;;;;;;;16.27;51.77;99138.00;4969795;28;97112;-74
2022/05/24 02:25:20;;;;;;;6.18;2.95;;;;;;;16.21;51.73;99125.22;4988488;28;96922;-74
2022/05/24 02:27:46;;;;;;;6.60;3.55;;;;;;;16.17;51.92;99131.69;4989572;28;97935;-74
2022/05/24 02:30:20;;;;;;;5.60;3.25;;;;;;;16.07;52.43;99132.41;4988795;28;97837;-74
2022/05/24 02:32:46;;;;;;;4.65;3.10;;;;;;;16.11;52.31;99140.94;4972550;28;97145;-74
2022/05/24 02:35:12;;;;;;;4.72;3.50;;;;;;;16.17;52.11;99142.28;4988167;28;96778;-74
2022/05/24 02:37:38;;;;;;;4.40;3.30;;;;;;;16.01;52.54;99146.09;4955256;28;100976;-74
2022/05/24 02:42:48;;;;;;;7.25;3.25;;;;;;;16.09;52.57;99149.97;4989201;28;96635;-74
2022/05/24 02:45:14;;;;;;;6.40;2.97;;;;;;;16.05;52.46;99149.34;4988862;28;97136;-74
2022/05/24 02:47:40;;;;;;;5.72;3.40;;;;;;;16.06;52.69;99149.25;4988641;28;97521;-74
2022/05/24 02:50:09;;;;;;;6.07;3.78;;;;;;;15.97;52.94;99144.66;4968318;28;101427;-74
2022/05/24 02:52:36;;;;;;;7.07;3.40;;;;;;;16.02;52.99;99141.63;4989717;28;97266;-74
2022/05/24 02:55:03;;;;;;;7.47;3.47;;;;;;;16.06;52.75;99114.84;4988345;28;96889;-74
2022/05/24 02:57:32;;;;;;;11.93;3.70;;;;;;;16.05;52.82;99125.53;4986564;28;101949;-74
2022/05/24 02:59:58;;;;;;;6.82;3.70;;;;;;;15.93;53.23;99115.88;4958719;28;99894;-74
2022/05/24 03:02:23;;;;;;;10.50;3.85;;;;;;;16.00;53.37;99115.31;4988327;28;96709;-74
2022/05/24 03:04:49;;;;;;;9.15;3.47;;;;;;;15.80;53.43;99106.22;4989066;28;97174;-74
2022/05/24 03:09:58;;;;;;;7.28;3.47;;;;;;;15.95;53.38;99128.03;4973424;28;101163;-74
2022/05/24 03:15:09;;;;;;;5.80;3.08;;;;;;;15.78;53.61;99100.19;4973032;28;97301;-74
2022/05/24 03:17:34;;;;;;;7.88;4.25;;;;;;;15.84;53.92;99125.34;4960103;28;99932;-74
2022/05/24 03:20:00;;;;;;;5.07;3.50;;;;;;;15.72;54.35;99116.53;4970342;28;100535;-74
2022/05/24 03:22:25;;;;;;;6.68;3.97;;;;;;;15.75;54.10;99116.28;4971487;28;96888;-74
2022/05/24 03:24:51;;;;;;;7.00;3.58;;;;;;;15.76;54.31;99103.91;4989113;28;97375;-74
2022/05/24 03:27:17;;;;;;;6.18;3.72;;;;;;;15.92;54.02;99111.53;4987831;28;97975;-74
2022/05/24 03:29:44;;;;;;;9.32;3.80;;;;;;;15.81;54.46;99113.19;4951329;28;99937;-74
2022/05/24 03:32:11;;;;;;;6.07;3.40;;;;;;;15.76;54.41;99110.03;4980798;28;96937;-74
2022/05/24 03:34:38;;;;;;;6.60;4.05;;;;;;;15.70;54.56;99102.56;4982884;28;97023;-74
2022/05/24 03:37:04;;;;;;;7.93;4.10;;;;;;;15.72;54.71;99089.22;4987503;28;97497;-74
2022/05/24 03:39:33;;;;;;;7.82;3.95;;;;;;;15.75;54.84;99081.91;4971248;28;99385;-75
2022/05/24 03:41:58;;;;;;;7.60;4.00;;;;;;;15.51;54.74;99051.97;4972525;28;97192;-74
2022/05/24 03:44:24;;;;;;;7.15;4.03;;;;;;;15.68;55.07;99077.16;4988023;28;96906;-74
2022/05/24 03:46:52;;;;;;;11.23;4.25;;;;;;;15.75;54.95;99094.28;4988410;28;98429;-74
2022/05/24 03:49:17;;;;;;;6.28;4.00;;;;;;;15.84;54.48;99109.47;4953517;28;101193;-74
2022/05/24 03:51:43;;;;;;;5.15;3.63;;;;;;;15.63;54.92;99088.06;4987768;28;96832;-74
2022/05/24 03:54:08;;;;;;;6.32;3.63;;;;;;;15.81;54.59;99097.31;4984040;28;97572;-74
2022/05/24 03:56:35;;;;;;;8.25;3.85;;;;;;;15.82;55.04;99101.66;4989542;28;97471;-74
2022/05/24 03:59:01;;;;;;;10.23;4.13;;;;;;;15.80;55.02;99102.72;4954986;28;100603;-74
2022/05/24 04:01:27;;;;;;;9.38;4.20;;;;;;;15.75;55.31;99111.00;4969434;28;97040;-74
2022/05/24 04:03:53;;;;;;;8.27;4.15;;;;;;;15.79;54.88;99117.72;4987907;28;96775;-74
2022/05/24 04:06:18;;;;;;;7.65;4.22;;;;;;;15.80;55.04;99113.31;4970385;28;99141;-74
2022/05/24 04:08:45;;;;;;;10.70;4.03;;;;;;;15.87;55.01;99117.16;4972703;28;101070;-74
2022/05/24 04:11:11;;;;;;;8.38;4.20;;;;;;;15.93;55.06;99115.88;4987126;28;97241;-74
2022/05/24 04:13:39;;;;;;;8.85;4.10;;;;;;;15.87;55.24;99113.69;4987127;28;96918;-74
2022/05/24 04:16:05;;;;;;;9.73;4.00;;;;;;;15.82;55.18;99121.97;4987997;28;97432;-74
2022/05/24 04:18:31;;;;;;;9.50;4.22;;;;;;;15.83;55.45;99134.25;4970083;28;101332;-74
2022/05/24 04:20:57;;;;;;;6.68;4.43;;;;;;;15.78;55.46;99129.28;4968460;28;96698;-74
2022/05/24 04:23:25;;;;;;;7.22;3.60;;;;;;;15.66;55.77;99100.22;4969051;28;97546;-74
2022/05/24 04:25:51;;;;;;;9.70;3.90;;;;;;;15.87;55.55;99127.75;4985842;28;97500;-74
2022/05/24 04:28:20;;;;;;;6.35;3.95;;;;;;;15.88;55.52;99132.06;4953475;28;101108;-74
2022/05/24 04:30:46;;;;;;;7.65;4.05;;;;;;;15.81;56.05;99129.06;4986264;28;97336;-74
2022/05/24 04:33:12;;;;;;;6.75;3.80;;;;;;;15.89;55.76;99128.50;4987006;28;97221;-74
2022/05/24 04:35:38;;;;;;;10.35;4.50;;;;;;;15.82;55.68;99114.88;4987263;28;100984;-74
2022/05/24 04:38:04;;;;;;;7.35;4.35;;;;;;;15.74;55.91;99105.84;4987228;28;97391;-74
2022/05/24 04:43:13;;;;;;;8.43;4.43;;;;;;;16.01;55.67;99116.16;4976722;28;96891;-74
2022/05/24 04:45:39;;;;;;;10.10;4.60;;;;;;;16.00;55.80;99128.53;4965534;28;101286;-74
2022/05/24 04:48:06;;;;;;;8.10;4.70;;;;;;;15.92;55.86;99109.75;4963021;28;97383;-74
2022/05/24 04:50:33;;;;;;;5.63;3.63;;;;;;;15.91;55.91;99118.66;4984735;28;96811;-74
2022/05/24 04:53:00;;;;;;;9.68;4.40;;;;;;;15.93;56.11;99115.88;4962299;28;96938;-74
2022/05/24 04:55:26;;;;;;;8.90;3.72;;;;;;;16.08;55.84;99130.59;4964093;28;101558;-75
2022/05/24 04:57:53;;;;;;;6.78;3.90;;;;;;;16.19;55.60;99125.31;4994565;28;97355;-75
2022/05/24 05:00:20;;;;;;;13.80;3.88;;;;;;;16.02;55.84;99105.41;4970075;28;97045;-79
2022/05/24 05:02:47;;;;;;;8.75;4.65;;;;;;;16.33;55.53;99139.31;4967485;28;97038;-75
2022/05/24 05:05:15;;;;;;;7.70;3.72;;;;;;;16.34;55.57;99131.25;4985406;28;101262;-75
2022/05/24 05:07:42;;;;;;;10.50;4.30;;;;;;;16.33;55.51;99134.88;4986995;28;97915;-75
2022/05/24 05:10:09;;;;;;;9.80;3.92;;;;;;;16.28;55.36;99110.53;4986239;28;96685;-75
2022/05/24 05:12:35;;;;;;;11.50;4.28;;;;;;;16.34;55.63;99123.31;4970803;28;96841;-74
2022/05/24 05:15:00;;;;;;;7.82;3.90;;;;;;;16.51;55.67;99132.59;4988043;28;97337;-74
2022/05/24 05:17:26;;;;;;;8.13;3.67;;;;;;;16.40;55.65;99138.72;4949020;28;101343;-76
2022/05/24 05:19:51;;;;;;;10.00;4.82;;;;;;;16.49;55.32;99132.75;4986199;28;97343;-72
2022/05/24 05:22:19;;;;;;;9.60;4.57;;;;;;;16.59;55.20;99132.03;4987062;28;96676;-74
2022/05/24 05:24:45;;;;;;;8.38;4.13;;;;;;;16.63;54.83;99131.66;4983753;28;97993;-72
2022/05/24 05:27:10;;;;;;;6.70;3.78;;;;;;;16.59;55.35;99130.22;4968797;28;100994;-75
2022/05/24 05:32:30;;;;;;;12.07;4.90;;;;;;;16.43;55.48;99112.00;4966810;28;97332;-76
2022/05/24 05:34:56;;;;;;;14.52;4.18;;;;;;;16.67;55.24;99146.38;4976375;28;97843;-78
2022/05/24 05:37:23;;;;;;;10.40;4.70;;;;;;;17.00;54.70;99128.81;4967356;28;101266;-77
2022/05/24 05:39:52;;;;;;;7.40;4.05;;;;;;;17.58;53.54;99132.06;4958190;28;96919;-77
2022/05/24 05:42:19;;;;;;;8.25;4.22;;;;;;;18.36;51.59;99132.69;4984408;28;97065;-80
2022/05/24 05:44:45;;;;;;;10.15;4.90;;;;;;;19.15;50.06;99124.97;4966286;28;101136;-80
2022/05/24 05:47:10;;;;;;;14.32;4.13;;;;;;;19.71;48.78;99120.88;4962610;28;102200;-81
2022/05/24 05:49:36;;;;;;;9.25;3.83;;;;;;;20.83;46.13;99125.63;4965073;28;97310;-82
2022/05/24 05:52:02;;;;;;;8.40;4.45;;;;;;;20.64;45.88;99124.72;4939982;28;97168;-77
2022/05/24 05:54:27;;;;;;;9.02;4.10;;;;;;;19.67;48.19;99127.47;4951367;28;101382;-77
2022/05/24 05:56:53;;;;;;;7.40;3.60;;;;;;;19.50;48.76;99134.28;4970955;28;99175;-77
2022/05/24 05:59:19;;;;;;;7.35;3.97;;;;;;;19.33;49.06;99129.63;4974306;28;97125;-77
2022/05/24 06:01:46;;;;;;;7.15;4.25;;;;;;;19.25;49.63;99127.63;4968272;28;97165;-77
2022/05/24 06:04:12;;;;;;;9.05;3.97;;;;;;;21.74;44.76;99125.69;4968363;28;101703;-78
2022/05/24 06:06:40;;;;;;;7.18;4.25;;;;;;;20.98;45.60;99138.34;4971857;28;101356;-77
2022/05/24 06:09:06;;;;;;;7.80;4.13;;;;;;;21.00;46.07;99128.38;4952922;28;97190;-78
2022/05/24 06:11:32;;;;;;;10.20;3.92;;;;;;;22.98;41.99;99135.31;4993934;28;97441;-78
2022/05/24 06:13:57;;;;;;;11.38;4.93;;;;;;;22.81;42.30;99121.00;4960668;28;101518;-78
2022/05/24 06:16:23;;;;;;;11.85;4.47;;;;;;;24.50;39.45;99126.22;4947989;28;99055;-77
2022/05/24 06:18:49;;;;;;;10.73;4.00;;;;;;;25.55;38.01;99132.22;4987577;28;97006;-77
2022/05/24 06:21:14;;;;;;;7.43;3.50;;;;;;;24.18;40.01;99118.00;4974314;28;97386;-77
2022/05/24 06:23:40;;;;;;;12.98;3.80;;;;;;;25.37;38.38;99140.53;4970099;28;99207;-77
2022/05/24 06:26:06;;;;;;;12.43;4.35;;;;;;;26.90;35.64;99128.88;4967471;28;100864;-77
2022/05/24 06:28:33;;;;;;;10.07;4.00;;;;;;;27.97;34.54;99131.84;4970810;28;97303;-80
2022/05/24 06:30:58;;;;;;;7.78;3.63;;;;;;;28.77;33.28;99124.38;4986938;28;97286;-77
2022/05/24 06:33:24;;;;;;;9.98;3.58;;;;;;;28.04;33.87;99130.03;4987704;28;98163;-78
2022/05/24 06:35:49;;;;;;;10.73;3.97;;;;;;;28.23;33.98;99128.56;4989295;28;97415;-77
2022/05/24 06:38:16;;;;;;;9.15;3.90;;;;;;;27.51;34.92;99126.78;4964805;28;96991;-77
2022/05/24 06:40:41;;;;;;;11.55;4.00;;;;;;;28.84;33.38;99126.09;4965254;28;97078;-78
2022/05/24 06:43:09;;;;;;;4.82;3.55;;;;;;;29.40;32.37;99097.28;4971818;28;100945;-80
2022/05/24 06:45:34;;;;;;;7.53;3.60;;;;;;;30.95;30.06;99106.94;4987844;28;97589;-81
2022/05/24 06:48:00;;;;;;;7.50;3.58;;;;;;;29.20;32.58;99132.31;4988580;28;97109;-79
2022/05/24 06:50:25;;;;;;;7.53;3.20;;;;;;;28.91;32.99;99122.59;4974867;28;97519;-77
2022/05/24 06:52:53;;;;;;;6.82;3.17;;;;;;;29.06;33.13;99136.81;4956316;28;101480;-84
2022/05/24 06:55:20;;;;;;;7.43;3.15;;;;;;;27.36;35.49;99142.97;4989425;28;97596;-86
2022/05/24 06:57:46;;;;;;;5.18;2.80;;;;;;;26.68;36.91;99147.66;4963825;28;97195;-84
2022/05/24 07:03:13;;;;;;;6.03;2.97;;;;;;;31.30;30.50;99137.22;4950914;28;97644;-83
2022/05/24 07:05:39;;;;;;;4.72;3.05;;;;;;;31.88;29.61;99130.03;4988760;28;97468;-81
2022/05/24 07:08:05;;;;;;;5.40;2.97;;;;;;;32.36;29.20;99135.75;4988269;28;97178;-82
2022/05/24 07:10:33;;;;;;;6.90;2.92;;;;;;;33.07;28.45;99139.06;4965176;28;97298;-80
2022/05/24 07:13:03;;;;;;;5.82;3.20;;;;;;;33.10;27.80;99141.31;4989403;28;98022;-80
2022/05/24 07:15:29;;;;;;;10.65;2.80;;;;;;;33.23;28.32;99119.41;4954415;28;100998;-81
2022/05/24 07:17:56;;;;;;;6.18;3.08;;;;;;;32.98;27.93;99133.06;4957974;28;100824;-78
2022/05/24 07:20:23;;;;;;;5.25;2.72;;;;;;;32.15;29.31;99125.28;4951526;28;97418;-80
2022/05/24 07:22:48;;;;;;;4.00;2.88;;;;;;;33.11;28.15;99135.66;4950742;28;101206;-76
2022/05/24 07:25:16;;;;;;;6.82;3.00;;;;;;;33.56;27.64;99134.50;4968425;28;98441;-78
2022/05/24 07:27:42;;;;;;;9.25;3.17;;;;;;;33.74;27.47;99128.16;4957907;28;96808;-76
2022/05/24 07:30:08;;;;;;;5.30;3.03;;;;;;;34.16;27.33;99137.19;4967439;28;96785;-76
2022/05/24 07:32:34;;;;;;;5.40;2.72;;;;;;;33.23;28.00;99145.78;4961315;28;97973;-76
2022/05/24 07:34:59;;;;;;;8.10;2.47;;;;;;;31.43;30.34;99119.25;4951073;28;101119;-76
2022/05/24 07:37:25;;;;;;;6.95;2.83;;;;;;;31.18;30.92;99129.97;4953861;28;97469;-78
2022/05/24 07:45:47;;;;;;;9.85;2.60;;;;;;;30.87;31.42;99134.25;4950504;28;98021;-77
2022/05/24 07:48:05;;;;;;;7.03;2.03;;;;;;;32.10;30.00;99139.50;4963271;28;98451;-76
2022/05/24 07:50:31;;;;;;;5.65;2.60;;;;;;;30.43;32.53;99149.28;4963297;28;97472;-77
2022/05/24 07:52:56;;;;;;;6.45;2.10;;;;;;;29.71;33.70;99143.56;4950716;28;98044;-80
2022/05/24 07:55:22;;;;;;;7.93;2.40;;;;;;;29.04;34.60;99142.44;4963694;28;97827;-76
2022/05/24 07:57:48;;;;;;;7.25;2.67;;;;;;;29.77;34.03;99136.50;4939647;28;97480;-78
2022/05/24 08:00:14;;;;;;;5.10;2.80;;;;;;;31.24;32.22;99132.66;4949421;28;96994;-79
2022/05/24 08:02:40;;;;;;;6.20;2.47;;;;;;;33.31;29.44;99134.59;4965218;28;101206;-78
2022/05/24 08:05:06;;;;;;;5.22;2.58;;;;;;;32.19;30.86;99129.22;4946902;28;101321;-82
2022/05/24 08:07:32;;;;;;;5.90;2.40;;;;;;;31.05;32.31;99114.59;4928695;28;98483;-79
2022/05/24 08:09:57;;;;;;;3.75;2.17;;;;;;;30.12;33.47;99129.03;4963915;28;97172;-79
2022/05/24 08:12:23;;;;;;;10.73;3.08;;;;;;;29.50;34.76;99133.69;4948910;28;101024;-79
2022/05/24 08:14:49;;;;;;;8.10;2.90;;;;;;;28.30;36.64;99134.00;4951533;28;101179;-79
2022/05/24 08:17:15;;;;;;;5.32;2.53;;;;;;;29.69;35.00;99133.97;4957959;28;96792;-79
2022/05/24 08:19:40;;;;;;;7.65;2.70;;;;;;;29.43;35.17;99140.09;4976193;28;97631;-78
2022/05/24 08:22:06;;;;;;;6.88;2.60;;;;;;;29.11;36.20;99140.59;4987119;28;101006;-79
2022/05/24 08:24:33;;;;;;;6.88;3.03;;;;;;;28.57;36.84;99140.47;4951874;28;100873;-79
2022/05/24 08:26:58;;;;;;;5.95;2.17;;;;;;;28.17;37.38;99150.91;4953085;28;97264;-79
2022/05/24 08:29:24;;;;;;;7.78;2.45;;;;;;;27.57;38.63;99147.56;4986221;28;97460;-78
2022/05/24 08:31:49;;;;;;;6.65;2.53;;;;;;;27.31;39.04;99154.34;4994076;28;97337;-77
2022/05/24 08:34:15;;;;;;;7.18;2.42;;;;;;;27.21;39.10;99150.25;4956614;28;100829;-83
2022/05/24 08:36:41;;;;;;;4.72;2.20;;;;;;;26.90;39.52;99142.34;4999253;28;96620;-77
2022/05/24 08:39:06;;;;;;;7.00;1.95;;;;;;;27.54;38.42;99142.56;4971072;28;97250;-80
2022/05/24 08:42:08;;;;;;;6.70;2.00;;;;;;;26.72;39.97;99148.94;4989176;28;97494;-81
2022/05/24 08:50:06;;;;;;;7.72;2.50;;;;;;;26.44;41.14;99154.06;4971498;28;97045;-79
2022/05/24 08:52:42;;;;;;;6.40;1.95;;;;;;;26.37;41.14;99142.38;4971663;28;97456;-80
2022/05/24 08:55:10;;;;;;;7.13;2.00;;;;;;;26.09;41.34;99151.03;4970410;28;101217;-79
2022/05/24 08:57:39;;;;;;;8.18;2.25;;;;;;;26.37;41.18;99142.38;4971377;28;96778;-78
2022/05/24 09:00:10;;;;;;;4.13;2.30;;;;;;;26.44;41.03;99151.34;4979309;28;96977;-81
2022/05/24 09:02:40;;;;;;;4.85;1.92;;;;;;;26.66;40.90;99146.16;4962248;28;102030;-80
2022/05/24 09:05:09;;;;;;;4.37;2.20;;;;;;;26.48;41.33;99139.22;4989060;28;97342;-81
2022/05/24 09:07:40;;;;;;;8.35;2.47;;;;;;;26.19;41.82;99143.53;4965773;28;96778;-78
2022/05/24 09:10:25;;;;;;;5.50;2.20;;;;;;;26.00;42.21;99146.69;4989998;28;97032;-80
2022/05/24 09:13:27;;;;;;;6.47;2.15;;;;;;;25.61;42.65;99149.47;4974072;28;97576;-79
2022/05/24 09:15:58;;;;;;;4.22;2.10;;;;;;;25.13;43.92;99140.59;4992265;28;101559;-79
2022/05/24 09:18:54;;;;;;;6.47;1.90;;;;;;;25.18;44.04;99151.69;4987324;28;97169;-79
2022/05/24 09:21:31;;;;;;;3.13;1.70;;;;;;;25.37;43.83;99155.81;4973432;28;97724;-80
2022/05/24 09:24:15;;;;;;;5.10;1.95;;;;;;;25.68;43.46;99153.09;4958412;28;101506;-79
2022/05/24 09:27:03;;;;;;;3.47;1.83;;;;;;;25.43;43.99;99155.13;4991149;28;101152;-79
2022/05/24 09:29:31;;;;;;;3.97;1.65;;;;;;;25.63;43.72;99155.50;4991104;28;96726;-80
2022/05/24 09:31:58;;;;;;;7.43;1.80;;;;;;;25.51;44.11;99155.03;4975119;28;97605;-77
2022/05/24 09:34:27;;;;;;;3.47;1.05;;;;;;;25.38;44.03;99147.56;4975303;28;97592;-74
2022/05/24 09:37:17;;;;;;;4.10;1.60;;;;;;;25.55;44.09;99163.63;4963417;28;101657;-74
2022/05/24 09:39:44;;;;;;;16.45;2.92;;;;;;;25.61;44.62;99171.78;4971660;28;97502;-74
2022/05/24 09:42:13;;;;;;;6.38;1.98;;;;;;;25.77;44.17;99170.84;4965463;28;98207;-76
2022/05/24 09:44:49;;;;;;;2.72;1.50;;;;;;;26.06;43.63;99162.09;4971650;28;98477;-75
2022/05/24 09:47:22;;;;;;;2.70;1.52;;;;;;;26.16;43.05;99151.13;4960801;28;101812;-76
2022/05/24 09:49:48;;;;;;;7.18;2.20;;;;;;;26.48;42.23;99171.53;4973515;28;98228;-80
2022/05/24 09:52:14;;;;;;;8.07;1.90;;;;;;;26.82;41.71;99164.81;4956423;28;97776;-77
2022/05/24 09:54:55;;;;;;;6.82;1.63;;;;;;;26.85;41.77;99172.53;4971021;28;100967;-78
2022/05/24 09:57:25;;;;;;;5.47;2.03;;;;;;;26.84;41.79;99177.06;4955804;28;102008;-79
2022/05/24 10:00:20;;;;;;;10.10;2.88;;;;;;;26.64;42.09;99157.91;4969354;28;96840;-79
2022/05/24 10:02:47;;;;;;;9.25;1.95;;;;;;;26.59;42.23;99176.50;4989574;28;96877;-80
2022/05/24 10:05:27;;;;;;;10.57;1.75;;;;;;;26.40;42.07;99185.03;4972477;28;101077;-83
2022/05/24 10:08:05;;;;;;;6.38;1.50;;;;;;;26.25;42.98;99192.22;4970794;28;101449;-78
2022/05/24 10:10:37;;;;;;;4.30;2.17;;;;;;;26.24;42.96;99186.03;4952782;28;96709;-77
2022/05/24 10:13:06;;;;;;;10.27;3.35;;;;;;;26.15;42.86;99193.31;4972459;28;97129;-78
2022/05/24 10:15:43;;;;;;;7.03;1.90;;;;;;;26.24;42.57;99194.09;4989045;28;97394;-78
2022/05/24 10:18:42;;;;;;;4.70;1.85;;;;;;;26.30;42.74;99190.69;4972367;28;101327;-76
2022/05/24 10:21:26;;;;;;;7.65;2.08;;;;;;;26.18;43.02;99187.59;4989179;28;97116;-77
2022/05/24 10:23:57;;;;;;;3.75;1.70;;;;;;;26.21;42.89;99197.16;4987586;28;97214;-76
2022/05/24 10:27:05;;;;;;;5.43;1.90;;;;;;;26.26;42.94;99188.53;5003158;28;100235;-78
2022/05/24 10:29:49;;;;;;;4.43;2.28;;;;;;;26.28;42.78;99183.81;4944241;28;99861;-76
2022/05/24 10:38:30;;;;;;;217.52;34.22;;;;;;;26.57;42.75;99194.66;4931690;28;101864;-78
2022/05/24 10:41:15;;;;;;;41.28;9.38;;;;;;;26.66;42.68;99199.97;4948751;28;97609;-80
2022/05/24 10:43:49;;;;;;;11.60;3.20;;;;;;;26.78;42.49;99188.56;4959251;28;97560;-80
2022/05/24 10:46:17;;;;;;;10.27;2.00;;;;;;;26.88;42.12;99193.69;4967794;28;97081;-78
2022/05/24 10:49:01;;;;;;;7.38;1.70;;;;;;;26.69;42.65;99180.78;4947431;28;101584;-79
2022/05/24 10:51:38;;;;;;;10.18;1.83;;;;;;;26.93;43.25;99195.81;4939072;28;101231;-77
2022/05/24 10:54:21;;;;;;;46.83;5.10;;;;;;;26.92;42.04;99181.53;4966475;28;96908;-76
2022/05/24 10:56:51;;;;;;;5.05;1.60;;;;;;;26.94;42.27;99197.50;4951234;28;97356;-76
2022/05/24 10:59:37;;;;;;;;;;;;;;;27.08;42.89;99189.44;4951407;28;101673;-76
2022/05/24 11:02:12;;;;;;;6.25;1.70;;;;;;;27.26;42.84;99183.69;4988242;28;98341;-77
2022/05/24 11:05:00;;;;;;;5.53;1.60;;;;;;;27.18;41.58;99182.97;4951536;28;96789;-78
2022/05/24 11:07:26;;;;;;;3.17;1.63;;;;;;;27.38;42.09;99196.69;4973890;28;97267;-77
2022/05/24 11:09:52;;;;;;;3.40;1.70;;;;;;;27.15;42.44;99178.78;4954736;28;100704;-78
2022/05/24 11:12:22;;;;;;;7.15;1.60;;;;;;;27.07;40.70;99192.31;4988581;28;97482;-81
2022/05/24 11:15:07;;;;;;;2.75;1.40;;;;;;;27.07;41.13;99195.00;4970709;28;97183;-76
2022/05/24 11:17:32;;;;;;;4.57;1.55;;;;;;;27.04;41.23;99166.56;4970153;28;97296;-80
2022/05/24 11:19:59;;;;;;;4.55;1.70;;;;;;;27.35;40.92;99189.00;4971542;28;101554;-75
2022/05/24 11:22:28;;;;;;;2.53;1.33;;;;;;;27.40;41.48;99195.50;4987348;28;101181;-79
2022/05/24 11:25:16;;;;;;;6.45;1.70;;;;;;;27.31;40.80;99185.81;4971442;28;96855;-78
2022/05/24 11:28:04;;;;;;;3.42;1.83;;;;;;;27.12;40.44;99187.19;4987227;28;97309;-78
2022/05/24 11:30:30;;;;;;;3.45;1.77;;;;;;;27.12;40.69;99195.28;4975883;28;97782;-77
2022/05/24 11:33:09;;;;;;;3.88;1.42;;;;;;;27.12;40.64;99192.59;4969160;28;101267;-79
2022/05/24 11:35:35;;;;;;;1.40;1.20;;;;;;;27.14;40.98;99184.31;4955201;28;97378;-75
2022/05/24 11:38:22;;;;;;;4.75;1.70;;;;;;;27.18;41.39;99177.56;4970008;28;97268;-75
2022/05/24 11:40:54;;;;;;;4.15;1.95;;;;;;;27.26;41.74;99178.31;4987977;28;97698;-79
2022/05/24 11:43:56;;;;;;;3.22;1.42;;;;;;;27.47;40.68;99185.63;4977554;28;99905;-85
2022/05/24 11:46:34;;;;;;;5.20;2.10;;;;;;;27.40;40.41;99184.72;4933945;28;97390;-78
2022/05/24 11:49:03;;;;;;;2.17;1.73;;;;;;;27.25;41.17;99182.00;4947747;28;98673;-77
2022/05/24 11:51:32;;;;;;;6.43;2.17;;;;;;;26.97;41.36;99192.59;4931759;28;101233;-77
2022/05/24 11:54:00;;;;;;;3.17;1.80;;;;;;;26.70;42.21;99163.59;4930587;28;97374;-81
2022/05/24 11:56:27;;;;;;;3.35;1.90;;;;;;;26.53;42.31;99162.91;4932761;28;97169;-78
2022/05/24 11:59:04;;;;;;;5.80;1.67;;;;;;;26.32;42.65;99142.91;4943711;28;97316;-80
2022/05/24 12:01:36;;;;;;;3.60;1.42;;;;;;;26.46;42.82;99186.16;4947969;28;97641;-78
2022/05/24 12:10:20;;;;;;;5.32;1.40;;;;;;;26.41;41.43;99187.56;4965271;28;97606;-78
2022/05/24 12:12:45;;;;;;;2.60;1.45;;;;;;;26.27;41.97;99190.19;4927569;28;97834;-78
2022/05/24 12:15:18;;;;;;;3.28;1.40;;;;;;;26.16;42.25;99200.34;4937891;28;101548;-78
2022/05/24 12:17:47;;;;;;;6.18;1.73;;;;;;;26.02;44.40;99178.78;4928445;28;97400;-79
2022/05/24 12:20:34;;;;;;;7.07;2.33;;;;;;;26.03;44.62;99197.41;4958747;28;97785;-78
2022/05/24 12:23:15;;;;;;;5.88;1.60;;;;;;;26.10;42.10;99200.25;4988666;28;97643;-73
2022/05/24 12:25:58;;;;;;;6.45;1.98;;;;;;;26.16;42.19;99205.75;4970595;28;101116;-73
2022/05/24 12:28:27;;;;;;;4.80;1.65;;;;;;;26.24;41.07;99188.72;4973272;28;97162;-73
2022/05/24 12:30:54;;;;;;;6.47;1.90;;;;;;;26.30;40.84;99197.91;4968569;28;96994;-73